Vero Beach, FL

6:29 AM EST on December 07, 2016 (GMT -0500)
Oak Chase | | Change Station

Elev 24 ft 27.66 °N, 80.46 °W | Updated 5 seconds ago

Overcast
Overcast
67.7 °F
Feels Like 67.7 °F
N
0.0
Wind Variable Wind from SSW
Gusts 3.0 mph

Today
High -- | Low -- °F
--% Chance of Precip.
Yesterday
High -- | Low -- °F
Precip. -- in
Pressure 30.02 in
Visibility 7.0 miles
Clouds Overcast 1900 ft
Dew Point 59 °F
Humidity 74%
Rainfall 0.00 in
Snow Depth Not available.
6:59 AM 5:27 PM
First Quarter, 51% visible
METAR KVRB 071053Z AUTO 31003KT 7SM OVC019 19/19 A3003 RMK AO2 SLP166 T01890189
Pressure 30.02 in
Visibility 7.0 miles
Clouds Overcast 1900 ft
Dew Point 59 °F
Humidity 74%
Rainfall 0.00 in
Snow Depth Not available.
6:59 AM 5:27 PM
First Quarter, 51% visible
METAR KVRB 071053Z AUTO 31003KT 7SM OVC019 19/19 A3003 RMK AO2 SLP166 T01890189

10-Day Weather Forecast

Almanac

Astronomy

Dec. 07, 2016 Rise Set
Actual Time
Civil Twilight
Nautical Twilight
Astronomical Twilight
Moon
Length of Visible Light
Length of Day
Tomorrow will be .
, % of the Moon is Illuminated

Today's Extremes

State Highs State Lows

Community

WunderPhotos

Upload Photos

1,956,111 photos uploaded!

WunderBlog® & News

Nearby

Air Quality

  Air Quality AQ Index Pollutant
Not available.

Snow Depth

Station Depth Elevation

Earthquake Activity

City Distance Mag. Time & Date
Minimum magnitude displayed is 2.5.

Coastal Water Temperatures

Place Temperature

Stations

Nearby Weather Stations

Station Location Temp. Windchill Dew Point Humidity Wind Precip. Elev Updated Type
                   

Watches & Warnings

There are currently no watches in effect.